Time;durP1;ratioP1;P1;durP2;ratioP2;P2;SDS_P1;SDS_P2;PMS_P1;PMS_P2;Temp;Humidity;BMP_temperature;BMP_pressure;BME280_temperature;BME280_humidity;BME280_pressure;Samples;Min_cycle;Max_cycle;Signal;HPM_P1;HPM_P2
2021/09/11 00:00:47;;;;;;;9.97;8.50;;;20.40;99.90;;;;;;5006296;28;20229;-70
2021/09/11 00:03:13;;;;;;;13.50;8.77;;;20.30;99.90;;;;;;5001418;28;20653;-69
2021/09/11 00:05:39;;;;;;;9.50;7.30;;;20.30;99.90;;;;;;4998669;28;20555;-69
2021/09/11 00:08:05;;;;;;;9.73;8.70;;;20.30;99.90;;;;;;5003356;28;20248;-66
2021/09/11 00:10:30;;;;;;;9.90;8.30;;;20.30;99.90;;;;;;5018034;28;20193;-67
2021/09/11 00:12:57;;;;;;;11.20;8.93;;;20.30;99.90;;;;;;5005203;28;20209;-68
2021/09/11 00:15:25;;;;;;;10.47;9.47;;;20.20;99.90;;;;;;5001013;28;21570;-67
2021/09/11 00:17:51;;;;;;;11.23;8.73;;;20.20;99.90;;;;;;5003167;28;21045;-69
2021/09/11 00:20:17;;;;;;;9.57;8.57;;;20.30;99.90;;;;;;5006329;28;20458;-67
2021/09/11 00:22:43;;;;;;;9.17;8.33;;;20.30;99.90;;;;;;5002960;28;20486;-66
2021/09/11 00:25:10;;;;;;;8.77;7.87;;;20.30;99.90;;;;;;5002738;28;20201;-67
2021/09/11 00:27:36;;;;;;;8.00;7.20;;;20.30;99.90;;;;;;5000910;28;20464;-68
2021/09/11 00:30:01;;;;;;;8.10;7.30;;;20.20;99.90;;;;;;5002481;28;20949;-67
2021/09/11 00:32:27;;;;;;;7.73;6.80;;;20.30;99.90;;;;;;5001154;28;20189;-68
2021/09/11 00:34:53;;;;;;;7.93;7.23;;;20.30;99.90;;;;;;5005835;28;20268;-68
2021/09/11 00:37:18;;;;;;;7.00;6.30;;;20.30;99.90;;;;;;5000167;28;20213;-69
2021/09/11 00:39:44;;;;;;;7.53;6.83;;;20.20;99.90;;;;;;5003807;28;20197;-68
2021/09/11 00:42:10;;;;;;;10.40;6.50;;;20.20;99.90;;;;;;5000656;28;20185;-69
2021/09/11 00:44:36;;;;;;;7.23;6.33;;;20.20;99.90;;;;;;5001559;28;20198;-68
2021/09/11 00:47:02;;;;;;;8.90;6.43;;;20.20;99.90;;;;;;5002658;28;20479;-68
2021/09/11 00:49:28;;;;;;;8.10;6.27;;;20.10;99.90;;;;;;5000881;28;20589;-68
2021/09/11 00:51:53;;;;;;;7.60;6.87;;;20.10;99.90;;;;;;5003454;28;20190;-68
2021/09/11 00:54:19;;;;;;;6.63;5.73;;;20.00;99.90;;;;;;5005110;28;20181;-69
2021/09/11 00:56:45;;;;;;;6.03;5.40;;;19.90;99.90;;;;;;5000139;28;20235;-69
2021/09/11 00:59:11;;;;;;;5.70;5.20;;;19.90;99.90;;;;;;5003753;28;20264;-67
2021/09/11 01:01:36;;;;;;;5.97;5.20;;;19.90;99.90;;;;;;5002692;28;20297;-67
2021/09/11 01:04:02;;;;;;;6.93;6.10;;;19.90;99.90;;;;;;4999804;28;20194;-69
2021/09/11 01:06:30;;;;;;;6.70;6.10;;;19.80;99.90;;;;;;5005978;28;20244;-67
2021/09/11 01:08:56;;;;;;;6.00;5.40;;;19.80;99.90;;;;;;4996127;28;20478;-67
2021/09/11 01:11:22;;;;;;;5.23;4.77;;;19.80;99.90;;;;;;5001726;28;20815;-68
2021/09/11 01:13:48;;;;;;;6.20;5.60;;;19.80;99.90;;;;;;5002128;28;20261;-68
2021/09/11 01:16:14;;;;;;;6.70;6.10;;;19.70;99.90;;;;;;4999578;28;20472;-68
2021/09/11 01:18:40;;;;;;;6.37;5.80;;;19.80;99.90;;;;;;5004435;28;20652;-69
2021/09/11 01:21:08;;;;;;;6.80;5.63;;;19.80;99.90;;;;;;5000799;28;20632;-70
2021/09/11 01:23:37;;;;;;;6.47;5.87;;;19.80;99.90;;;;;;5002458;28;20200;-69
2021/09/11 01:26:03;;;;;;;6.63;5.70;;;19.80;99.90;;;;;;5005184;28;20474;-69
2021/09/11 01:28:29;;;;;;;7.57;6.80;;;19.80;99.90;;;;;;5000919;28;20982;-68
2021/09/11 01:30:55;;;;;;;6.53;5.93;;;19.80;99.90;;;;;;4998784;28;20197;-68
2021/09/11 01:33:23;;;;;;;6.90;6.30;;;19.70;99.90;;;;;;5006273;28;20699;-67
2021/09/11 01:35:48;;;;;;;7.67;6.20;;;19.80;99.90;;;;;;4997872;28;20436;-69
2021/09/11 01:38:14;;;;;;;6.50;5.90;;;19.80;99.90;;;;;;5002765;28;20928;-68
2021/09/11 01:40:40;;;;;;;6.50;5.90;;;19.70;99.90;;;;;;5003063;28;20194;-69
2021/09/11 01:43:05;;;;;;;5.90;5.40;;;19.70;99.90;;;;;;5003206;28;20244;-67
2021/09/11 01:45:31;;;;;;;7.87;7.03;;;19.60;99.90;;;;;;5002165;28;20201;-67
2021/09/11 01:47:59;;;;;;;7.33;6.20;;;19.60;99.90;;;;;;5001904;28;20233;-69
2021/09/11 01:50:25;;;;;;;6.63;6.03;;;19.60;99.90;;;;;;4998399;28;20228;-68
2021/09/11 01:52:52;;;;;;;7.33;6.57;;;19.60;99.90;;;;;;5002738;28;20441;-68
2021/09/11 01:55:20;;;;;;;7.27;6.00;;;19.60;99.90;;;;;;5006278;28;20239;-68
2021/09/11 01:57:46;;;;;;;9.10;5.93;;;19.70;99.90;;;;;;5002447;28;20486;-67
2021/09/11 02:00:13;;;;;;;6.73;6.13;;;19.70;99.90;;;;;;5005643;28;20922;-67
2021/09/11 02:02:39;;;;;;;6.77;6.03;;;19.60;99.90;;;;;;5004092;28;20208;-69
2021/09/11 02:05:06;;;;;;;6.63;5.97;;;19.60;99.90;;;;;;5015396;28;20477;-67
2021/09/11 02:07:32;;;;;;;7.07;6.37;;;19.60;99.90;;;;;;5005191;28;20264;-68
2021/09/11 02:09:58;;;;;;;7.20;6.50;;;19.70;99.90;;;;;;5003312;28;20436;-70
2021/09/11 02:12:24;;;;;;;7.43;6.77;;;19.80;99.90;;;;;;5004912;28;20448;-67
2021/09/11 02:14:50;;;;;;;8.60;6.90;;;19.80;99.90;;;;;;5006338;28;20193;-67
2021/09/11 02:17:16;;;;;;;7.00;6.40;;;19.70;99.90;;;;;;5006770;28;20459;-68
2021/09/11 02:19:41;;;;;;;8.03;6.10;;;19.70;99.90;;;;;;5007857;28;20200;-67
2021/09/11 02:22:10;;;;;;;7.03;6.43;;;19.70;99.90;;;;;;5002323;28;20924;-68
2021/09/11 02:24:37;;;;;;;8.20;7.40;;;19.70;99.90;;;;;;5005918;28;20204;-68
2021/09/11 02:27:03;;;;;;;8.23;7.23;;;19.80;99.90;;;;;;5007891;28;20461;-69
2021/09/11 02:29:30;;;;;;;6.73;6.13;;;19.80;99.90;;;;;;5004654;28;20501;-68
2021/09/11 02:31:55;;;;;;;7.20;6.50;;;19.80;99.90;;;;;;5002363;28;20807;-67
2021/09/11 02:34:22;;;;;;;7.77;6.97;;;19.80;99.90;;;;;;5003778;28;20435;-68
2021/09/11 02:36:48;;;;;;;7.37;6.77;;;19.80;99.90;;;;;;5001263;28;20289;-67
2021/09/11 02:39:13;;;;;;;7.60;6.43;;;20.00;99.90;;;;;;5005759;28;20471;-67
2021/09/11 02:41:39;;;;;;;7.30;6.70;;;19.90;99.90;;;;;;5005122;28;21109;-69
2021/09/11 02:44:05;;;;;;;7.43;6.63;;;20.00;99.90;;;;;;5005786;28;20308;-67
2021/09/11 02:46:31;;;;;;;6.80;6.20;;;20.00;99.90;;;;;;5003707;28;20217;-67
2021/09/11 02:48:58;;;;;;;7.13;6.53;;;20.00;99.90;;;;;;5003000;28;20548;-67
2021/09/11 02:51:25;;;;;;;8.30;7.50;;;20.00;99.90;;;;;;5003891;28;20439;-66
2021/09/11 02:53:51;;;;;;;7.43;6.60;;;19.90;99.90;;;;;;5008461;28;20428;-67
2021/09/11 02:56:17;;;;;;;7.10;6.40;;;19.80;99.90;;;;;;5001583;28;21018;-68
2021/09/11 02:58:43;;;;;;;9.40;7.10;;;19.80;99.90;;;;;;5004865;28;20488;-68
2021/09/11 03:01:08;;;;;;;7.70;7.00;;;19.80;99.90;;;;;;5003376;28;20201;-70
2021/09/11 03:03:34;;;;;;;8.03;6.70;;;19.80;99.90;;;;;;5001765;28;20197;-70
2021/09/11 03:05:59;;;;;;;6.80;6.10;;;19.80;99.90;;;;;;5002236;28;20225;-70
2021/09/11 03:08:25;;;;;;;7.77;6.90;;;19.90;99.90;;;;;;5001071;28;20215;-68
2021/09/11 03:10:51;;;;;;;7.53;6.63;;;19.80;99.90;;;;;;5002578;28;20625;-68
2021/09/11 03:13:18;;;;;;;7.57;6.83;;;19.80;99.90;;;;;;5006483;28;20185;-70
2021/09/11 03:15:44;;;;;;;7.47;6.77;;;19.80;99.90;;;;;;5002113;28;20200;-68
2021/09/11 03:18:10;;;;;;;9.23;7.13;;;19.70;99.90;;;;;;5003463;28;20452;-68
2021/09/11 03:20:36;;;;;;;8.67;6.67;;;19.70;99.90;;;;;;5005960;28;20197;-69
2021/09/11 03:23:03;;;;;;;9.30;7.87;;;19.70;99.90;;;;;;5002280;28;20456;-70
2021/09/11 03:25:29;;;;;;;8.30;7.50;;;19.70;99.90;;;;;;5004879;28;20459;-69
2021/09/11 03:27:54;;;;;;;7.90;7.20;;;19.50;99.90;;;;;;5004022;28;20476;-68
2021/09/11 03:30:20;;;;;;;8.87;7.97;;;19.50;99.90;;;;;;5000275;28;20198;-67
2021/09/11 03:32:48;;;;;;;9.23;7.80;;;19.60;99.90;;;;;;5006628;28;20683;-67
2021/09/11 03:35:14;;;;;;;9.73;8.73;;;19.60;99.90;;;;;;5003178;28;20243;-67
2021/09/11 03:37:40;;;;;;;11.00;8.80;;;19.60;99.90;;;;;;5005237;28;20464;-69
2021/09/11 03:40:07;;;;;;;8.77;7.90;;;19.60;99.90;;;;;;5004853;28;20233;-69
2021/09/11 03:42:32;;;;;;;10.63;9.60;;;19.50;99.90;;;;;;4986935;28;20434;-67
2021/09/11 03:44:58;;;;;;;10.27;8.20;;;19.40;99.90;;;;;;5005707;28;20810;-68
2021/09/11 03:47:24;;;;;;;11.60;8.67;;;19.40;99.90;;;;;;5002565;28;20254;-67
2021/09/11 03:49:49;;;;;;;10.93;9.77;;;19.40;99.90;;;;;;5000064;28;20217;-67
2021/09/11 03:52:15;;;;;;;9.50;8.40;;;19.50;99.90;;;;;;5003775;28;20193;-67
2021/09/11 03:54:40;;;;;;;9.87;8.87;;;19.50;99.90;;;;;;5003295;28;20284;-66
2021/09/11 03:57:09;;;;;;;9.53;8.53;;;19.50;99.90;;;;;;5003491;28;20456;-67
2021/09/11 03:59:35;;;;;;;9.83;8.87;;;19.70;99.90;;;;;;4987616;28;20193;-67
2021/09/11 04:02:04;;;;;;;10.10;9.10;;;19.50;99.90;;;;;;5015910;28;20598;-67
2021/09/11 04:04:29;;;;;;;10.07;9.07;;;19.50;99.90;;;;;;5006053;28;20193;-69
2021/09/11 04:06:55;;;;;;;9.63;8.63;;;19.60;99.90;;;;;;4999566;28;20542;-68
2021/09/11 04:09:21;;;;;;;9.83;8.83;;;19.70;99.90;;;;;;5001205;28;20213;-66
2021/09/11 04:11:46;;;;;;;9.60;8.70;;;19.60;99.90;;;;;;5004922;28;20200;-67
2021/09/11 04:14:12;;;;;;;9.57;8.60;;;19.40;99.90;;;;;;5002152;28;20284;-67
2021/09/11 04:16:38;;;;;;;11.40;10.00;;;19.40;99.90;;;;;;5001083;28;20225;-67
2021/09/11 04:19:04;;;;;;;10.20;9.20;;;19.30;99.90;;;;;;5004884;28;20186;-69
2021/09/11 04:21:29;;;;;;;10.97;8.80;;;19.40;99.90;;;;;;5002363;28;20196;-70
2021/09/11 04:23:55;;;;;;;9.60;8.27;;;19.50;99.90;;;;;;5004604;28;20193;-70
2021/09/11 04:26:21;;;;;;;9.57;8.63;;;19.40;99.90;;;;;;5004370;28;20236;-70
2021/09/11 04:28:49;;;;;;;9.70;8.80;;;19.50;99.90;;;;;;5001139;28;20225;-68
2021/09/11 04:31:15;;;;;;;10.53;9.43;;;19.50;99.90;;;;;;5004007;28;20251;-67
2021/09/11 04:33:41;;;;;;;10.60;8.90;;;19.40;99.90;;;;;;5017231;28;20873;-69
2021/09/11 04:36:09;;;;;;;15.23;9.30;;;19.40;99.90;;;;;;5015084;28;20295;-67
2021/09/11 04:38:36;;;;;;;10.00;9.00;;;19.30;99.90;;;;;;5005331;28;20289;-67
2021/09/11 04:41:01;;;;;;;10.03;8.97;;;19.30;99.90;;;;;;5004037;28;20416;-69
2021/09/11 04:43:27;;;;;;;9.20;8.30;;;19.50;99.90;;;;;;5001913;28;20981;-69
2021/09/11 04:45:53;;;;;;;11.40;8.60;;;19.50;99.90;;;;;;5001532;28;20335;-70
2021/09/11 04:48:20;;;;;;;10.17;9.20;;;19.40;99.90;;;;;;5002582;28;20748;-68
2021/09/11 04:50:46;;;;;;;9.47;8.57;;;19.40;99.90;;;;;;5002899;28;20276;-70
2021/09/11 04:53:12;;;;;;;10.50;8.93;;;19.40;99.90;;;;;;5002462;28;20522;-68
2021/09/11 04:55:37;;;;;;;9.93;8.73;;;19.60;99.90;;;;;;5004691;28;20664;-68
2021/09/11 04:58:03;;;;;;;10.43;9.43;;;19.70;99.90;;;;;;5005913;28;20281;-68
2021/09/11 05:00:29;;;;;;;9.77;8.57;;;19.80;99.90;;;;;;5003600;28;20198;-67
2021/09/11 05:02:58;;;;;;;9.27;8.07;;;19.80;99.90;;;;;;5003606;28;20232;-67
2021/09/11 05:05:23;;;;;;;13.60;9.70;;;19.80;99.90;;;;;;5006681;28;20246;-69
2021/09/11 05:07:49;;;;;;;10.20;8.93;;;19.60;99.90;;;;;;5004785;28;20582;-67
2021/09/11 05:10:15;;;;;;;9.00;8.10;;;19.70;99.90;;;;;;5002969;28;20200;-67
2021/09/11 05:12:40;;;;;;;9.00;8.10;;;19.60;99.90;;;;;;5003834;28;20198;-67
2021/09/11 05:15:06;;;;;;;10.30;9.30;;;19.50;99.90;;;;;;5006496;28;20678;-67
2021/09/11 05:17:34;;;;;;;10.30;9.20;;;19.50;99.90;;;;;;4996978;28;20333;-68
2021/09/11 05:20:00;;;;;;;10.13;9.13;;;19.40;99.90;;;;;;5002266;28;20526;-68
2021/09/11 05:22:25;;;;;;;9.00;8.10;;;19.20;99.90;;;;;;5004537;28;20578;-68
2021/09/11 05:24:51;;;;;;;9.27;8.27;;;19.20;99.90;;;;;;4998342;28;20201;-68
2021/09/11 05:27:17;;;;;;;10.53;9.10;;;19.20;99.90;;;;;;5003617;28;20209;-68
2021/09/11 05:29:42;;;;;;;9.60;8.60;;;19.10;99.90;;;;;;5006472;28;20287;-68
2021/09/11 05:32:08;;;;;;;10.17;9.17;;;19.10;99.90;;;;;;5004447;28;20193;-68
2021/09/11 05:34:34;;;;;;;9.27;8.37;;;19.40;99.90;;;;;;5007377;28;20545;-68
2021/09/11 05:36:59;;;;;;;8.67;7.77;;;19.40;99.90;;;;;;5005375;28;20219;-68
2021/09/11 05:39:25;;;;;;;9.33;8.43;;;19.30;99.90;;;;;;5006818;28;20196;-68
2021/09/11 05:41:51;;;;;;;9.07;8.17;;;19.40;99.90;;;;;;5008772;28;20189;-68
2021/09/11 05:44:16;;;;;;;7.87;7.07;;;19.60;99.90;;;;;;5004294;28;20673;-66
2021/09/11 05:46:42;;;;;;;9.10;8.30;;;19.70;99.90;;;;;;5009658;28;20212;-67
2021/09/11 05:49:07;;;;;;;8.20;7.43;;;19.70;99.90;;;;;;5006664;28;20495;-68
2021/09/11 05:51:33;;;;;;;8.50;7.60;;;19.70;99.90;;;;;;5018224;28;20189;-67
2021/09/11 05:53:59;;;;;;;8.40;7.50;;;19.60;99.90;;;;;;5009822;28;20200;-69
2021/09/11 05:56:24;;;;;;;8.67;7.77;;;19.70;99.90;;;;;;5003792;28;20205;-68
2021/09/11 05:58:50;;;;;;;9.53;8.20;;;19.80;99.90;;;;;;5006335;28;20190;-67
2021/09/11 06:01:16;;;;;;;10.00;9.00;;;19.70;99.90;;;;;;5004825;28;20190;-67
2021/09/11 06:03:41;;;;;;;8.67;7.87;;;19.60;99.90;;;;;;5005256;28;20229;-69
2021/09/11 06:06:10;;;;;;;9.70;8.77;;;19.50;99.90;;;;;;4990059;28;20244;-68
2021/09/11 06:08:35;;;;;;;8.83;7.93;;;19.70;99.90;;;;;;5009657;28;20213;-67
2021/09/11 06:11:04;;;;;;;8.70;7.90;;;19.60;99.90;;;;;;5003268;28;20466;-68
2021/09/11 06:13:30;;;;;;;10.50;7.77;;;19.60;99.90;;;;;;5002801;28;20186;-68
2021/09/11 06:15:56;;;;;;;8.00;7.20;;;19.70;99.90;;;;;;5006154;28;20971;-68
2021/09/11 06:18:21;;;;;;;10.40;7.30;;;19.70;99.90;;;;;;5004374;28;20247;-68
2021/09/11 06:20:47;;;;;;;7.83;7.13;;;19.50;99.90;;;;;;5006402;28;20193;-68
2021/09/11 06:23:13;;;;;;;9.20;8.20;;;19.40;99.90;;;;;;5021254;28;20193;-68
2021/09/11 06:25:40;;;;;;;10.00;8.17;;;19.50;99.90;;;;;;5003976;28;20201;-68
2021/09/11 06:28:06;;;;;;;9.60;8.27;;;19.60;99.90;;;;;;5008828;28;20217;-67
2021/09/11 06:30:32;;;;;;;7.70;6.97;;;19.50;99.90;;;;;;5005213;28;20922;-67
2021/09/11 06:32:57;;;;;;;7.90;7.20;;;19.60;99.90;;;;;;5005041;28;20618;-67
2021/09/11 06:35:23;;;;;;;7.60;6.90;;;19.60;99.90;;;;;;5005968;28;20580;-67
2021/09/11 06:37:51;;;;;;;10.33;7.57;;;19.60;99.90;;;;;;5003011;28;20296;-67
2021/09/11 06:40:17;;;;;;;8.40;7.40;;;19.50;99.90;;;;;;5004867;28;20272;-68
2021/09/11 06:42:44;;;;;;;7.87;7.13;;;19.50;99.90;;;;;;5006645;28;20470;-68
2021/09/11 06:45:10;;;;;;;8.37;7.07;;;19.50;99.90;;;;;;5010617;23;20608;-60
2021/09/11 06:47:36;;;;;;;8.30;7.50;;;19.80;99.90;;;;;;4967515;28;20544;-61
2021/09/11 06:50:02;;;;;;;8.23;7.43;;;19.80;99.90;;;;;;4958566;28;20440;-61
2021/09/11 06:52:27;;;;;;;7.67;6.97;;;19.70;99.90;;;;;;4964499;28;20618;-62
2021/09/11 06:54:53;;;;;;;7.90;6.90;;;19.70;99.90;;;;;;4969580;28;20453;-61
2021/09/11 06:57:19;;;;;;;7.90;6.80;;;19.70;99.90;;;;;;4966294;28;20256;-60
2021/09/11 06:59:44;;;;;;;8.00;6.87;;;19.90;99.90;;;;;;4965530;28;20246;-62
2021/09/11 07:02:10;;;;;;;7.43;6.30;;;19.90;99.90;;;;;;4966330;28;20190;-60
2021/09/11 07:04:35;;;;;;;7.83;7.20;;;19.90;99.90;;;;;;4965429;28;20201;-61
2021/09/11 07:07:01;;;;;;;8.53;7.63;;;20.00;99.90;;;;;;4967829;28;20207;-60
2021/09/11 07:09:27;;;;;;;7.67;6.97;;;20.00;99.90;;;;;;4960520;28;20280;-60
2021/09/11 07:11:52;;;;;;;7.53;6.83;;;19.90;99.90;;;;;;4966079;28;20250;-62
2021/09/11 07:14:18;;;;;;;7.00;6.40;;;20.00;99.90;;;;;;4967736;28;20280;-62
2021/09/11 07:16:44;;;;;;;7.97;7.07;;;20.10;99.90;;;;;;4963085;28;20218;-60
2021/09/11 07:19:10;;;;;;;7.13;6.43;;;20.10;99.90;;;;;;4965654;28;20429;-62
2021/09/11 07:21:37;;;;;;;8.00;7.20;;;20.10;99.90;;;;;;4965537;28;20669;-61
2021/09/11 07:24:02;;;;;;;7.77;6.97;;;20.10;99.90;;;;;;4962925;28;20439;-62
2021/09/11 07:26:28;;;;;;;12.33;8.23;;;20.00;99.90;;;;;;4967890;28;20452;-60
2021/09/11 07:28:55;;;;;;;6.90;6.20;;;20.10;99.90;;;;;;4964683;28;20252;-60
2021/09/11 07:31:21;;;;;;;8.83;7.47;;;20.00;99.90;;;;;;4954759;28;20627;-60
2021/09/11 07:33:47;;;;;;;9.97;7.43;;;20.00;99.90;;;;;;4962607;28;20494;-60
2021/09/11 07:36:13;;;;;;;7.87;7.10;;;20.10;99.90;;;;;;4963056;28;20479;-60
2021/09/11 07:38:39;;;;;;;7.40;6.70;;;20.10;99.90;;;;;;4962195;28;20245;-62
2021/09/11 07:41:05;;;;;;;7.60;6.90;;;20.00;99.90;;;;;;4964658;28;20433;-61
2021/09/11 07:43:31;;;;;;;7.60;6.90;;;20.00;99.90;;;;;;4960450;28;20443;-61
2021/09/11 07:45:57;;;;;;;7.40;6.70;;;19.90;99.90;;;;;;4961415;28;20981;-60
2021/09/11 07:48:22;;;;;;;7.77;6.97;;;19.90;99.90;;;;;;4963766;28;20221;-62
2021/09/11 07:50:49;;;;;;;8.30;7.50;;;20.00;99.90;;;;;;4961847;28;20437;-61
2021/09/11 07:53:15;;;;;;;7.73;7.03;;;20.00;99.90;;;;;;4959634;28;20443;-62
2021/09/11 07:55:41;;;;;;;9.20;8.00;;;20.00;99.90;;;;;;4963056;28;20461;-62
2021/09/11 07:58:07;;;;;;;9.17;7.80;;;19.90;99.90;;;;;;4963643;28;20453;-62
2021/09/11 08:00:33;;;;;;;8.87;7.17;;;20.00;99.90;;;;;;4964853;28;20465;-62
2021/09/11 08:02:59;;;;;;;8.03;7.27;;;20.00;99.90;;;;;;4961431;28;20550;-61
2021/09/11 08:05:25;;;;;;;13.40;7.43;;;20.10;99.90;;;;;;4962561;28;20661;-61
2021/09/11 08:07:50;;;;;;;7.43;6.70;;;20.30;99.90;;;;;;4963930;28;20222;-62
2021/09/11 08:10:17;;;;;;;10.90;8.57;;;20.30;99.90;;;;;;4968064;28;20195;-62
2021/09/11 08:12:43;;;;;;;10.53;7.60;;;20.30;99.90;;;;;;4966938;28;20196;-62
2021/09/11 08:15:10;;;;;;;8.03;7.00;;;20.40;99.90;;;;;;4967285;28;20422;-61
2021/09/11 08:17:37;;;;;;;7.07;6.47;;;20.40;99.90;;;;;;4970533;28;20478;-62
2021/09/11 08:20:04;;;;;;;7.40;6.70;;;20.40;99.90;;;;;;4969947;28;20448;-59
2021/09/11 08:22:30;;;;;;;8.43;7.53;;;20.40;99.90;;;;;;4966860;28;20434;-61
2021/09/11 08:24:56;;;;;;;8.13;7.40;;;20.40;99.90;;;;;;4965407;28;20431;-62
2021/09/11 08:27:23;;;;;;;8.83;6.80;;;20.50;99.90;;;;;;4965336;28;20206;-60
2021/09/11 08:29:49;;;;;;;9.27;7.83;;;20.50;99.90;;;;;;4965130;28;20475;-61
2021/09/11 08:32:15;;;;;;;8.10;7.30;;;20.60;99.90;;;;;;4972901;28;20437;-61
2021/09/11 08:34:40;;;;;;;8.87;6.77;;;20.50;99.90;;;;;;4964339;28;20437;-61
2021/09/11 08:37:06;;;;;;;8.20;7.50;;;20.60;99.90;;;;;;4963890;28;20329;-58
2021/09/11 08:39:32;;;;;;;12.77;7.80;;;20.70;99.90;;;;;;4961776;28;20611;-60
2021/09/11 08:42:01;;;;;;;7.53;6.80;;;20.70;99.90;;;;;;4968456;28;20198;-60
2021/09/11 08:44:27;;;;;;;8.67;7.77;;;20.70;99.90;;;;;;4975557;28;20460;-59
2021/09/11 08:46:54;;;;;;;7.40;6.70;;;20.80;99.90;;;;;;4973909;28;20548;-58
2021/09/11 08:49:20;;;;;;;7.27;6.57;;;20.90;99.90;;;;;;4968966;28;20480;-60
2021/09/11 08:51:46;;;;;;;8.43;7.00;;;20.90;99.90;;;;;;4967880;28;20438;-60
2021/09/11 08:54:18;;;;;;;7.33;6.63;;;21.00;99.90;;;;;;4973156;28;20507;-58
2021/09/11 08:56:45;;;;;;;7.93;6.97;;;21.10;99.90;;;;;;4966436;28;20214;-60
2021/09/11 08:59:16;;;;;;;7.10;6.33;;;21.10;99.90;;;;;;4969652;28;20500;-60
2021/09/11 09:01:44;;;;;;;7.47;6.70;;;21.10;99.90;;;;;;4966089;28;20431;-62
2021/09/11 09:04:10;;;;;;;6.90;5.77;;;21.00;99.90;;;;;;4969365;28;20446;-61
2021/09/11 09:06:36;;;;;;;6.47;5.87;;;21.10;99.90;;;;;;4970170;28;21019;-61
2021/09/11 09:09:14;;;;;;;6.73;6.03;;;21.10;99.90;;;;;;4968970;28;20213;-60
2021/09/11 09:11:44;;;;;;;7.67;6.97;;;21.10;99.90;;;;;;4967408;28;20450;-61
2021/09/11 09:14:11;;;;;;;7.70;6.70;;;21.10;99.90;;;;;;4968640;28;20429;-61
2021/09/11 09:16:41;;;;;;;7.40;6.70;;;21.10;99.90;;;;;;4964506;28;20454;-60
2021/09/11 09:19:15;;;;;;;8.67;6.50;;;21.10;99.90;;;;;;4966662;28;20478;-60
2021/09/11 09:21:43;;;;;;;7.53;6.77;;;21.00;99.90;;;;;;4964455;28;20450;-61
2021/09/11 09:24:13;;;;;;;7.80;7.00;;;21.20;99.90;;;;;;4967152;28;20460;-63
2021/09/11 09:26:51;;;;;;;6.97;6.30;;;21.20;99.90;;;;;;4954938;28;20497;-63
2021/09/11 09:29:18;;;;;;;9.90;6.80;;;21.30;99.90;;;;;;4970464;28;20527;-60
2021/09/11 09:31:45;;;;;;;8.77;6.50;;;21.30;99.90;;;;;;4964290;28;20538;-60
2021/09/11 09:34:31;;;;;;;6.83;6.13;;;21.30;99.90;;;;;;4974978;28;20420;-61
2021/09/11 09:36:58;;;;;;;6.47;5.87;;;21.40;99.90;;;;;;4968384;28;20446;-61
2021/09/11 09:39:28;;;;;;;7.50;6.90;;;21.50;99.90;;;;;;4968212;28;20465;-61
2021/09/11 09:42:01;;;;;;;9.13;6.97;;;21.60;99.90;;;;;;4970263;28;20433;-62
2021/09/11 09:44:26;;;;;;;7.03;6.37;;;21.60;99.90;;;;;;4968531;28;20444;-60
2021/09/11 09:46:52;;;;;;;6.67;5.90;;;21.70;99.90;;;;;;4963831;28;21075;-60
2021/09/11 09:49:23;;;;;;;7.80;7.10;;;21.80;99.90;;;;;;4964913;28;20225;-59
2021/09/11 09:51:50;;;;;;;7.63;6.83;;;21.80;99.90;;;;;;4965634;28;20294;-60
2021/09/11 09:54:17;;;;;;;6.53;5.97;;;21.80;99.90;;;;;;4961395;28;20809;-60
2021/09/11 09:56:43;;;;;;;8.10;6.00;;;21.90;99.90;;;;;;4965502;28;20931;-60
2021/09/11 09:59:10;;;;;;;7.30;6.47;;;22.00;99.90;;;;;;4959579;28;20454;-59
2021/09/11 10:01:36;;;;;;;6.50;5.90;;;22.10;99.90;;;;;;4961356;28;20204;-60
2021/09/11 10:04:16;;;;;;;9.60;5.93;;;22.10;99.90;;;;;;4963762;28;20836;-60
2021/09/11 10:06:46;;;;;;;6.30;5.50;;;22.10;99.90;;;;;;4945110;28;20510;-61
2021/09/11 10:09:14;;;;;;;5.97;5.37;;;22.20;99.90;;;;;;4968590;28;20568;-60
2021/09/11 10:11:49;;;;;;;5.60;5.10;;;22.20;99.90;;;;;;4967010;28;20469;-59
2021/09/11 10:14:15;;;;;;;5.63;4.93;;;22.30;99.90;;;;;;4966891;28;20437;-60
2021/09/11 10:16:43;;;;;;;7.43;5.50;;;22.30;99.90;;;;;;4954828;28;21026;-58
2021/09/11 10:19:20;;;;;;;6.20;5.43;;;22.30;99.90;;;;;;4961469;28;20468;-59
2021/09/11 10:21:49;;;;;;;5.53;4.93;;;22.30;99.90;;;;;;4962835;28;20532;-58
2021/09/11 10:24:18;;;;;;;6.27;5.13;;;22.20;99.90;;;;;;4964954;28;20437;-58
2021/09/11 10:26:47;;;;;;;5.80;5.20;;;22.10;99.90;;;;;;4957924;28;20523;-58
2021/09/11 10:29:34;;;;;;;5.70;4.93;;;22.10;99.90;;;;;;4957827;28;20905;-61
2021/09/11 10:32:01;;;;;;;5.47;4.93;;;22.20;99.90;;;;;;4952048;28;20568;-61
2021/09/11 10:34:53;;;;;;;7.13;5.10;;;22.20;99.90;;;;;;4953331;28;20449;-61
2021/09/11 10:37:33;;;;;;;5.90;5.23;;;22.40;99.90;;;;;;4955699;28;20503;-61
2021/09/11 10:40:13;;;;;;;5.60;4.80;;;22.50;99.90;;;;;;4968861;28;20497;-61
2021/09/11 10:43:01;;;;;;;5.70;5.20;;;22.50;99.90;;;;;;4955196;28;20431;-61
2021/09/11 10:46:02;;;;;;;5.80;4.70;;;22.60;99.90;;;;;;4962844;28;20948;-63
2021/09/11 10:48:39;;;;;;;5.30;4.90;;;22.60;99.90;;;;;;4958025;28;20487;-60
2021/09/11 10:51:25;;;;;;;5.73;5.23;;;22.70;99.90;;;;;;4959385;28;20453;-61
2021/09/11 10:54:08;;;;;;;5.40;4.90;;;22.70;99.90;;;;;;4971630;28;20422;-61
2021/09/11 10:56:42;;;;;;;5.47;5.00;;;22.70;99.90;;;;;;4960717;28;20473;-62
2021/09/11 10:59:28;;;;;;;6.20;4.70;;;22.70;99.90;;;;;;4967593;28;20460;-62
2021/09/11 11:02:11;;;;;;;5.40;4.90;;;22.80;99.90;;;;;;4966852;28;20925;-61
2021/09/11 11:04:49;;;;;;;6.93;5.60;;;22.90;99.90;;;;;;4957674;28;20509;-61
2021/09/11 11:07:20;;;;;;;4.93;4.43;;;23.10;99.90;;;;;;4948750;28;20450;-60
2021/09/11 11:09:52;;;;;;;5.33;4.87;;;23.10;99.90;;;;;;4968339;28;20450;-61
2021/09/11 11:12:24;;;;;;;4.63;4.20;;;23.30;99.90;;;;;;4957941;28;20869;-60
2021/09/11 11:14:53;;;;;;;5.60;5.10;;;23.30;99.90;;;;;;4961448;28;20442;-61
2021/09/11 11:17:19;;;;;;;6.67;6.13;;;23.30;99.90;;;;;;4964180;28;20500;-60
2021/09/11 11:19:50;;;;;;;5.70;5.10;;;23.40;99.90;;;;;;4965790;28;20932;-61
2021/09/11 11:22:40;;;;;;;5.93;5.33;;;23.50;99.90;;;;;;4965041;28;20444;-61
2021/09/11 11:25:08;;;;;;;6.17;5.10;;;23.50;99.90;;;;;;4967745;28;20451;-61
2021/09/11 11:27:35;;;;;;;7.00;5.10;;;23.50;99.90;;;;;;4967630;28;20861;-59
2021/09/11 11:30:01;;;;;;;5.43;4.97;;;23.50;99.90;;;;;;4968730;28;20540;-61
2021/09/11 11:32:29;;;;;;;5.20;4.70;;;23.50;99.90;;;;;;4969182;28;20513;-62
2021/09/11 11:35:01;;;;;;;5.77;5.23;;;23.50;99.90;;;;;;4963540;28;21257;-61
2021/09/11 11:37:29;;;;;;;5.57;4.50;;;23.60;99.90;;;;;;4964101;28;20896;-61
2021/09/11 11:39:58;;;;;;;4.83;4.37;;;23.70;99.90;;;;;;4968823;28;20430;-61
2021/09/11 11:42:26;;;;;;;5.87;5.27;;;23.70;99.90;;;;;;4959908;28;20434;-61
2021/09/11 11:44:54;;;;;;;5.37;4.87;;;23.90;99.90;;;;;;4968689;28;20593;-59
2021/09/11 11:47:46;;;;;;;4.50;4.10;;;24.10;99.90;;;;;;4964039;28;20511;-59
2021/09/11 11:50:23;;;;;;;5.37;4.87;;;24.10;99.90;;;;;;4965766;28;20496;-58
2021/09/11 11:52:56;;;;;;;5.27;4.40;;;24.20;99.90;;;;;;4960387;28;20486;-59
2021/09/11 11:55:23;;;;;;;7.10;5.23;;;24.00;99.90;;;;;;4963119;28;20524;-59
2021/09/11 11:57:50;;;;;;;5.60;5.10;;;24.00;99.90;;;;;;4960558;28;20456;-58
2021/09/11 12:00:17;;;;;;;4.67;4.27;;;24.00;99.90;;;;;;4963254;28;20451;-59
2021/09/11 12:02:47;;;;;;;4.13;3.67;;;24.10;99.90;;;;;;4960095;28;20476;-59
2021/09/11 12:05:24;;;;;;;4.13;3.30;;;24.70;99.90;;;;;;4963447;28;21085;-62
2021/09/11 12:08:03;;;;;;;3.20;2.90;;;25.20;99.90;;;;;;4966615;28;20532;-62
2021/09/11 12:10:30;;;;;;;2.77;2.57;;;25.60;99.90;;;;;;4961843;28;20445;-61
2021/09/11 12:13:08;;;;;;;2.90;2.70;;;25.80;99.90;;;;;;4969752;28;20431;-62
2021/09/11 12:15:35;;;;;;;3.20;2.77;;;25.60;99.90;;;;;;4967389;28;20524;-61
2021/09/11 12:18:02;;;;;;;3.53;3.23;;;25.30;99.90;;;;;;4965718;28;21068;-61
2021/09/11 12:20:31;;;;;;;3.13;2.83;;;25.20;99.90;;;;;;4969117;28;20504;-62
2021/09/11 12:23:05;;;;;;;3.43;2.90;;;25.00;99.90;;;;;;4968150;28;20458;-61
2021/09/11 12:25:46;;;;;;;2.97;2.73;;;25.10;99.90;;;;;;4960245;28;20435;-61
2021/09/11 12:28:39;;;;;;;3.83;3.20;;;24.70;99.90;;;;;;4966964;28;20472;-61
2021/09/11 12:31:07;;;;;;;4.83;3.40;;;24.40;99.90;;;;;;4967189;28;20441;-61
2021/09/11 12:34:00;;;;;;;3.77;3.47;;;24.10;99.90;;;;;;4962172;28;20422;-59
2021/09/11 12:36:50;;;;;;;3.93;3.50;;;24.10;99.90;;;;;;4958967;28;20561;-59
2021/09/11 12:39:16;;;;;;;3.60;3.30;;;23.90;99.90;;;;;;4961172;28;20519;-58
2021/09/11 12:41:50;;;;;;;3.70;3.40;;;23.70;99.90;;;;;;4961962;28;20525;-58
2021/09/11 12:44:34;;;;;;;4.63;3.63;;;23.60;99.90;;;;;;4961586;28;20865;-58
2021/09/11 12:47:05;;;;;;;3.30;3.00;;;23.70;99.90;;;;;;4966174;28;20458;-59
2021/09/11 12:49:32;;;;;;;3.63;3.33;;;23.70;99.90;;;;;;4963057;28;20469;-62